createdAt,value
2019-05-01T00:02:07.680Z,5.90
2019-05-01T00:07:08.922Z,6.00
2019-05-01T00:12:04.671Z,5.90
2019-05-01T00:17:00.703Z,6.10
2019-05-01T00:21:56.413Z,6.00
2019-05-01T00:26:52.114Z,6.00
2019-05-01T00:31:47.841Z,6.00
2019-05-01T00:36:43.672Z,6.00
2019-05-01T00:41:39.380Z,5.90
2019-05-01T00:46:35.139Z,5.90
2019-05-01T00:51:30.899Z,6.00
2019-05-01T00:56:51.836Z,6.10
2019-05-01T01:02:15.766Z,6.00
2019-05-01T01:07:11.572Z,6.20
2019-05-01T01:12:07.425Z,6.30
2019-05-01T01:17:03.165Z,6.50
2019-05-01T01:21:58.889Z,6.50
2019-05-01T01:26:54.618Z,6.60
2019-05-01T01:31:51.401Z,6.50
2019-05-01T01:36:47.127Z,6.40
2019-05-01T01:41:43.068Z,6.50
2019-05-01T01:46:39.964Z,6.30
2019-05-01T01:51:35.805Z,6.10
2019-05-01T01:56:31.672Z,6.20
2019-05-01T02:01:44.760Z,6.30
2019-05-01T02:06:40.486Z,6.30
2019-05-01T02:11:36.302Z,6.30
2019-05-01T02:16:32.056Z,6.20
2019-05-01T02:21:27.867Z,6.20
2019-05-01T02:26:26.074Z,6.20
2019-05-01T02:31:33.562Z,6.30
2019-05-01T02:36:32.072Z,6.50
2019-05-01T02:41:40.952Z,6.60
2019-05-01T02:46:37.858Z,6.60
2019-05-01T02:51:34.306Z,6.70
2019-05-01T02:56:36.390Z,6.80
2019-05-01T03:01:46.640Z,6.90
2019-05-01T03:06:32.913Z,6.90
2019-05-01T03:11:30.786Z,6.90
2019-05-01T03:16:27.404Z,7.00
2019-05-01T03:21:35.643Z,7.00
2019-05-01T03:26:32.292Z,7.10
2019-05-01T03:31:28.311Z,7.10
2019-05-01T03:36:24.311Z,7.10
2019-05-01T03:41:22.545Z,7.10
2019-05-01T03:46:18.916Z,7.00
2019-05-01T03:51:14.779Z,6.90
2019-05-01T03:56:10.702Z,6.80
2019-05-01T04:01:16.177Z,6.80
2019-05-01T04:06:12.599Z,6.90
2019-05-01T04:11:08.750Z,6.90
2019-05-01T04:16:04.679Z,6.90
2019-05-01T04:21:01.524Z,7.00
2019-05-01T04:25:57.323Z,7.00
2019-05-01T04:31:03.881Z,6.90
2019-05-01T04:36:04.924Z,6.90
2019-05-01T04:41:02.224Z,7.00
2019-05-01T04:45:58.679Z,7.00
2019-05-01T04:50:54.808Z,7.00
2019-05-01T04:55:50.745Z,7.10
2019-05-01T05:00:46.588Z,7.10
2019-05-01T05:05:42.314Z,7.10
2019-05-01T05:10:38.742Z,7.30
2019-05-01T05:15:50.481Z,7.40
2019-05-01T05:20:46.240Z,7.50
2019-05-01T05:25:42.630Z,7.50
2019-05-01T05:30:44.568Z,7.60
2019-05-01T05:35:43.901Z,7.50
2019-05-01T05:40:42.272Z,7.40
2019-05-01T05:45:38.328Z,7.40
2019-05-01T05:50:45.371Z,7.40
2019-05-01T05:55:48.286Z,7.40
2019-05-01T06:01:08.854Z,7.50
2019-05-01T06:06:35.901Z,7.50
2019-05-01T06:11:54.522Z,7.60
2019-05-01T06:17:02.507Z,7.40
2019-05-01T06:22:30.430Z,7.30
2019-05-01T06:27:27.043Z,7.60
2019-05-01T06:32:22.859Z,7.60
2019-05-01T06:37:20.786Z,7.30
2019-05-01T06:42:17.936Z,7.50
2019-05-01T06:47:38.098Z,7.40
2019-05-01T06:52:36.170Z,7.50
2019-05-01T06:57:32.792Z,7.60
2019-05-01T07:02:34.979Z,7.90
2019-05-01T07:07:28.268Z,7.90
2019-05-01T07:12:30.024Z,8.10
2019-05-01T07:17:26.145Z,8.30
2019-05-01T07:22:22.531Z,8.40
2019-05-01T07:27:18.862Z,8.80
2019-05-01T07:32:15.892Z,9.10
2019-05-01T07:37:12.017Z,9.70
2019-05-01T07:42:28.713Z,10.20
2019-05-01T07:47:34.704Z,10.40
2019-05-01T07:52:31.072Z,10.60
2019-05-01T07:57:27.606Z,10.90
2019-05-01T08:02:25.767Z,11.20
2019-05-01T08:07:21.149Z,11.40
2019-05-01T08:12:18.844Z,11.40
2019-05-01T08:17:18.090Z,12.00
2019-05-01T08:22:17.227Z,12.20
2019-05-01T08:27:43.870Z,12.00
2019-05-01T08:46:37.149Z,13.10
2019-05-01T08:51:34.902Z,13.40
2019-05-01T08:56:31.994Z,13.50
2019-05-01T09:01:27.760Z,13.80
2019-05-01T14:25:13.336Z,16.80
2019-05-01T14:30:11.195Z,16.90
2019-05-01T14:35:07.619Z,16.70
2019-05-01T14:41:33.168Z,16.80
2019-05-01T15:03:48.648Z,16.90
2019-05-01T15:08:44.427Z,16.80
2019-05-01T15:13:50.265Z,16.90
2019-05-01T15:19:24.456Z,16.90
2019-05-01T15:24:20.299Z,16.90
2019-05-01T15:29:16.136Z,16.90
2019-05-01T15:34:12.041Z,16.80
2019-05-01T15:39:14.688Z,16.80
2019-05-01T15:44:26.125Z,16.80
2019-05-01T15:49:22.031Z,16.70
2019-05-01T15:54:17.740Z,16.60
2019-05-01T15:59:13.506Z,16.60
2019-05-01T16:04:09.350Z,16.50
2019-05-01T16:09:06.395Z,16.60
2019-05-01T16:14:02.483Z,16.70
2019-05-01T16:18:58.363Z,16.70
2019-05-01T16:23:54.209Z,16.60
2019-05-01T16:28:49.983Z,16.60
2019-05-01T16:33:45.836Z,16.60
2019-05-01T16:38:54.836Z,16.60
2019-05-01T16:44:05.944Z,16.60
2019-05-01T16:49:01.907Z,16.50
2019-05-01T16:53:57.979Z,16.40
2019-05-01T16:59:14.134Z,16.40
2019-05-01T17:04:20.524Z,16.40
2019-05-01T17:09:49.733Z,16.30
2019-05-01T17:15:02.812Z,16.20
2019-05-01T17:20:00.269Z,16.20
2019-05-01T17:24:56.765Z,16.10
2019-05-01T17:30:06.523Z,16.00
2019-05-01T17:35:06.674Z,15.90
2019-05-01T17:40:03.540Z,15.90
2019-05-01T17:45:38.891Z,15.70
2019-05-01T17:50:36.151Z,15.60
2019-05-01T18:02:11.773Z,15.30
2019-05-01T18:07:39.826Z,14.90
2019-05-01T18:12:46.907Z,14.60
2019-05-01T18:17:42.723Z,14.40
2019-05-01T18:22:56.494Z,14.20
2019-05-01T18:28:03.710Z,14.10
2019-05-01T18:32:59.623Z,13.90
2019-05-01T18:38:01.040Z,13.70
2019-05-01T18:42:56.805Z,13.50
2019-05-01T18:47:52.753Z,13.10
2019-05-01T18:52:48.569Z,12.90
2019-05-01T18:58:32.659Z,12.80
2019-05-01T19:04:34.635Z,12.70
2019-05-01T19:10:30.385Z,12.50
2019-05-01T19:15:35.784Z,12.40
